Houlton, ME

8:25 AM EST on December 11, 2016 (GMT -0500)
Maliseet Natural Resources | | Change Station
Active Advisory: Winter Weather Advisory

Elev 338 ft 46.19 °N, 67.81 °W | Updated 2 minutes ago

Clear
Clear
9.2 °F
Feels Like 9 °F
N
0.0
Wind Variable Wind from SW
Gusts 0.0 mph

Today
High -- | Low -- °F
--% Chance of Precip.
Yesterday
High -- | Low -- °F
Precip. -- in
Pressure 30.40 in
Visibility 10.0 miles
Clouds Clear
Windchill 9 °F
Dew Point 6 °F
Humidity 86%
Rainfall 0.00 in
Snow Depth Not available.
7:04 AM 3:45 PM
Waxing Gibbous, 91% visible
METAR KHUL 111253Z AUTO 00000KT 10SM CLR M19/M21 A3035 RMK AO2 SLP293 T11891206
Pressure 30.40 in
Visibility 10.0 miles
Clouds Clear
Windchill 9 °F
Dew Point 6 °F
Humidity 86%
Rainfall 0.00 in
Snow Depth Not available.
7:04 AM 3:45 PM
Waxing Gibbous, 91% visible
METAR KHUL 111253Z AUTO 00000KT 10SM CLR M19/M21 A3035 RMK AO2 SLP293 T11891206

10-Day Weather Forecast

Almanac

Astronomy

Dec. 11, 2016 Rise Set
Actual Time
Civil Twilight
Nautical Twilight
Astronomical Twilight
Moon
Length of Visible Light
Length of Day
Tomorrow will be .
, % of the Moon is Illuminated

Today's Extremes

State Highs State Lows

Community

WunderPhotos

Upload Photos

1,956,710 photos uploaded!

WunderBlog® & News

Nearby

Air Quality

  Air Quality AQ Index Pollutant
Not available.

Snow Depth

Station Depth Elevation

Earthquake Activity

City Distance Mag. Time & Date
Minimum magnitude displayed is 2.5.

Coastal Water Temperatures

Place Temperature

Stations

Nearby Weather Stations

Station Location Temp. Windchill Dew Point Humidity Wind Precip. Elev Updated Type
                   

Watches & Warnings

Winter Weather Advisory
Issued: 3:12 AM EST Dec. 11, 2016 – National Weather Service

... Winter Weather Advisory in effect from 7 am to 8 PM EST
Monday...

The National Weather Service in Caribou has issued a Winter
Weather Advisory for snow... which is in effect from 7 am to 8 PM
EST Monday.

* Locations... central and northern Maine.

* Hazard types... snow.

* Snow accumulations... 4 to 8 inches.

* Timing... early Monday morning through Monday afternoon.

* Impacts... moderate impact. Heavy snowfall will result in
difficult driving conditions.

* Winds... east 10 to 15 mph with gusts up to 20 mph.

* Temperatures... 6 to 22 above.

* Visibilities... one quarter to one half mile at times.

Precautionary/preparedness actions...

A Winter Weather Advisory means that periods of snow... sleet... or
freezing rain will cause travel difficulties. Be prepared for
slippery roads and limited visibilities... and use caution while
driving.



Mcb